createdAt,value
2023-04-15T00:02:22.190Z,19.92
2023-04-15T00:04:49.267Z,19.67
2023-04-15T00:07:16.449Z,20.65
2023-04-15T00:09:46.863Z,18.20
2023-04-15T00:12:13.675Z,17.85
2023-04-15T00:14:46.611Z,18.95
2023-04-15T00:17:13.532Z,19.30
2023-04-15T00:19:48.944Z,19.23
2023-04-15T00:22:16.054Z,19.33
2023-04-15T00:24:50.859Z,21.25
2023-04-15T00:27:17.619Z,22.27
2023-04-15T00:29:46.808Z,22.58
2023-04-15T00:32:13.532Z,23.92
2023-04-15T00:34:46.090Z,26.30
2023-04-15T00:37:12.932Z,25.70
2023-04-15T00:39:46.833Z,30.58
2023-04-15T00:42:15.200Z,28.88
2023-04-15T00:44:48.727Z,31.02
2023-04-15T00:47:17.560Z,32.30
2023-04-15T00:49:47.963Z,33.03
2023-04-15T00:52:23.820Z,33.00
2023-04-15T00:54:52.417Z,36.40
2023-04-15T00:57:24.575Z,34.15
2023-04-15T00:59:56.740Z,33.53
2023-04-15T01:02:24.990Z,35.00
2023-04-15T01:04:54.906Z,37.10
2023-04-15T01:07:21.961Z,42.45
2023-04-15T01:09:52.215Z,40.42
2023-04-15T01:12:20.809Z,38.38
2023-04-15T01:14:53.745Z,38.88
2023-04-15T01:17:22.775Z,40.53
2023-04-15T01:19:50.257Z,44.15
2023-04-15T01:22:21.102Z,45.72
2023-04-15T01:25:10.414Z,41.75
2023-04-15T01:27:49.966Z,43.55
2023-04-15T01:30:20.214Z,39.20
2023-04-15T01:32:50.058Z,45.47
2023-04-15T01:35:16.805Z,44.08
2023-04-15T01:37:50.474Z,43.20
2023-04-15T01:40:17.568Z,44.53
2023-04-15T01:42:47.205Z,52.00
2023-04-15T01:45:17.545Z,45.58
2023-04-15T01:47:50.532Z,49.97
2023-04-15T01:50:21.663Z,51.30
2023-04-15T01:52:51.072Z,48.88
2023-04-15T01:55:21.130Z,53.28
2023-04-15T01:57:47.892Z,47.55
2023-04-15T02:00:15.007Z,60.00
2023-04-15T02:02:47.802Z,53.88
2023-04-15T02:05:17.690Z,46.45
2023-04-15T02:07:47.444Z,49.63
2023-04-15T02:10:16.652Z,51.78
2023-04-15T02:12:46.311Z,46.80
2023-04-15T02:15:17.858Z,41.55
2023-04-15T02:17:50.992Z,40.38
2023-04-15T02:20:21.431Z,39.08
2023-04-15T02:22:48.838Z,44.03
2023-04-15T02:25:20.227Z,38.60
2023-04-15T02:27:49.091Z,41.15
2023-04-15T02:30:19.022Z,41.92
2023-04-15T02:32:49.334Z,42.95
2023-04-15T02:35:19.025Z,42.65
2023-04-15T02:37:59.161Z,44.67
2023-04-15T02:40:26.089Z,46.60
2023-04-15T02:42:52.933Z,50.95
2023-04-15T02:45:23.811Z,46.90
2023-04-15T02:47:50.899Z,47.85
2023-04-15T02:50:17.743Z,52.83
2023-04-15T02:52:44.970Z,57.22
2023-04-15T02:55:12.676Z,58.72
2023-04-15T02:57:50.367Z,54.38
2023-04-15T03:00:20.012Z,57.22
2023-04-15T03:02:47.662Z,63.05
2023-04-15T03:05:20.465Z,59.53
2023-04-15T03:07:47.256Z,58.08
2023-04-15T03:10:13.989Z,64.78
2023-04-15T03:12:44.241Z,58.65
2023-04-15T03:15:11.358Z,58.80
2023-04-15T03:17:47.169Z,64.47
2023-04-15T03:20:14.415Z,60.25
2023-04-15T03:22:49.840Z,64.88
2023-04-15T03:25:19.969Z,59.75
2023-04-15T03:27:46.692Z,62.35
2023-04-15T03:30:13.602Z,64.63
2023-04-15T03:32:46.205Z,70.32
2023-04-15T03:35:12.960Z,62.17
2023-04-15T03:37:41.991Z,62.78
2023-04-15T03:40:12.808Z,62.92
2023-04-15T03:42:41.704Z,60.97
2023-04-15T03:45:12.412Z,64.28
2023-04-15T03:47:40.525Z,61.55
2023-04-15T03:50:13.494Z,59.75
2023-04-15T03:52:48.628Z,64.35
2023-04-15T03:55:16.559Z,66.32
2023-04-15T03:57:46.503Z,59.92
2023-04-15T04:00:15.804Z,65.95
2023-04-15T04:02:43.278Z,62.50
2023-04-15T04:05:10.655Z,63.40
2023-04-15T04:07:37.430Z,64.32
2023-04-15T04:10:04.934Z,65.85
2023-04-15T04:12:34.286Z,65.78
2023-04-15T04:15:06.715Z,68.00
2023-04-15T04:17:34.000Z,63.35
2023-04-15T04:20:00.838Z,59.15
2023-04-15T04:22:27.859Z,63.95
2023-04-15T04:24:54.700Z,61.10
2023-04-15T04:27:24.548Z,61.42
2023-04-15T04:29:51.560Z,61.03
2023-04-15T04:32:18.170Z,63.53
2023-04-15T04:34:44.921Z,64.22
2023-04-15T04:37:11.649Z,68.82
2023-04-15T04:39:42.942Z,65.10
2023-04-15T04:42:17.352Z,65.65
2023-04-15T04:44:48.685Z,66.22
2023-04-15T04:47:15.731Z,66.95
2023-04-15T04:49:52.968Z,64.30
2023-04-15T04:52:25.640Z,65.35
2023-04-15T04:54:52.430Z,67.38
2023-04-15T04:57:19.127Z,64.90
2023-04-15T04:59:48.709Z,65.28
2023-04-15T05:02:15.618Z,66.13
2023-04-15T05:04:45.573Z,66.20
2023-04-15T05:07:12.246Z,66.13
2023-04-15T05:09:46.934Z,68.15
2023-04-15T05:12:16.253Z,68.40
2023-04-15T05:14:52.306Z,66.45
2023-04-15T05:17:21.402Z,68.32
2023-04-15T05:19:48.630Z,68.68
2023-04-15T05:22:15.557Z,67.30
2023-04-15T05:48:59.332Z,60.03
2023-04-15T06:21:11.894Z,53.08
2023-04-15T06:59:03.980Z,41.65
2023-04-15T07:01:33.851Z,42.72
2023-04-15T07:04:01.387Z,39.92
2023-04-15T07:06:28.428Z,41.33
2023-04-15T07:08:56.003Z,38.35
2023-04-15T07:11:22.732Z,40.55
2023-04-15T07:13:49.580Z,39.38
2023-04-15T07:16:16.437Z,37.33
2023-04-15T07:18:49.348Z,37.10
2023-04-15T07:21:17.352Z,39.00
2023-04-15T07:23:57.391Z,38.03
2023-04-15T07:26:27.160Z,39.47
2023-04-15T07:28:54.065Z,38.50
2023-04-15T07:31:21.332Z,38.17
2023-04-15T07:33:51.192Z,39.35
2023-04-15T07:36:18.152Z,38.17
2023-04-15T07:38:50.365Z,36.80
2023-04-15T07:41:20.950Z,36.38
2023-04-15T07:43:50.112Z,36.90
2023-04-15T07:46:16.959Z,35.97
2023-04-15T07:48:43.798Z,34.67
2023-04-15T07:51:10.988Z,34.83
2023-04-15T07:53:38.076Z,34.33
2023-04-15T07:56:05.697Z,32.50
2023-04-15T07:58:32.373Z,31.65
2023-04-15T08:00:59.175Z,32.13
2023-04-15T08:03:26.195Z,31.80
2023-04-15T08:05:56.173Z,31.33
2023-04-15T08:08:22.962Z,29.38
2023-04-15T08:10:55.900Z,30.73
2023-04-15T08:13:22.686Z,27.33
2023-04-15T08:16:23.449Z,28.88
2023-04-15T08:18:57.856Z,29.83
2023-04-15T08:21:30.971Z,27.65
2023-04-15T08:23:57.896Z,28.95
2023-04-15T08:26:27.709Z,27.40
2023-04-15T08:28:54.827Z,26.67
2023-04-15T08:31:22.247Z,27.52
2023-04-15T08:33:54.375Z,27.33
2023-04-15T08:36:21.241Z,25.88
2023-04-15T08:38:51.856Z,25.63
2023-04-15T08:41:34.556Z,24.98
2023-04-15T08:44:10.262Z,22.75
2023-04-15T08:46:52.373Z,31.95
2023-04-15T08:49:28.881Z,26.25
2023-04-15T08:52:00.386Z,24.23
2023-04-15T08:54:28.566Z,22.25
2023-04-15T08:56:58.940Z,23.40
2023-04-15T08:59:26.408Z,22.40
2023-04-15T09:01:55.355Z,23.27
2023-04-15T09:04:22.156Z,25.42
2023-04-15T09:06:56.545Z,22.05
2023-04-15T09:09:23.270Z,25.00
2023-04-15T09:11:53.069Z,31.20
2023-04-15T09:14:19.796Z,21.65
2023-04-15T09:17:05.489Z,23.15
2023-04-15T09:19:38.864Z,22.58
2023-04-15T09:22:06.917Z,23.83
2023-04-15T09:24:43.633Z,24.90
2023-04-15T09:27:13.345Z,24.85
2023-04-15T09:29:47.367Z,28.02
2023-04-15T09:32:21.270Z,19.48
2023-04-15T09:34:56.355Z,28.05
2023-04-15T09:37:41.663Z,19.70
2023-04-15T09:40:18.715Z,19.63
2023-04-15T09:43:06.480Z,19.38
2023-04-15T09:45:37.265Z,17.70
2023-04-15T09:48:21.513Z,19.70
2023-04-15T09:50:58.558Z,17.60
2023-04-15T09:53:29.837Z,18.20
2023-04-15T09:56:04.349Z,18.00
2023-04-15T09:58:35.360Z,16.92
2023-04-15T10:01:09.311Z,18.02
2023-04-15T10:03:37.406Z,17.23
2023-04-15T10:06:07.266Z,17.30
2023-04-15T10:08:37.553Z,17.10
2023-04-15T10:11:06.737Z,17.40
2023-04-15T10:13:35.936Z,18.77
2023-04-15T10:16:12.087Z,19.52
2023-04-15T10:18:47.236Z,19.48
2023-04-15T10:21:18.425Z,20.25
2023-04-15T10:23:48.736Z,19.08
2023-04-15T10:26:21.756Z,18.75
2023-04-15T10:29:11.332Z,19.02
2023-04-15T10:31:46.947Z,18.90
2023-04-15T10:34:17.972Z,19.70
2023-04-15T10:36:59.276Z,19.05
2023-04-15T10:39:35.215Z,18.55
2023-04-15T10:42:16.510Z,20.00
2023-04-15T10:45:04.397Z,19.83
2023-04-15T10:47:37.029Z,19.45
2023-04-15T10:50:28.287Z,19.20
2023-04-15T10:52:57.974Z,18.92
2023-04-15T10:55:34.426Z,19.30
2023-04-15T10:58:03.266Z,18.73
2023-04-15T11:00:37.641Z,20.13
2023-04-15T11:03:15.857Z,18.23
2023-04-15T11:05:58.095Z,19.23
2023-04-15T11:09:03.405Z,19.25
2023-04-15T11:12:09.771Z,18.85
2023-04-15T11:14:46.255Z,19.52
2023-04-15T11:17:15.046Z,18.50
2023-04-15T11:19:51.604Z,18.40
2023-04-15T11:22:21.427Z,18.35
2023-04-15T11:24:51.986Z,18.45
2023-04-15T11:27:26.474Z,18.30
2023-04-15T11:30:26.673Z,18.35
2023-04-15T11:33:26.929Z,19.52
2023-04-15T11:36:04.240Z,19.05
2023-04-15T11:38:39.151Z,18.40
2023-04-15T11:41:06.096Z,19.23
2023-04-15T11:43:35.652Z,18.65
2023-04-15T11:46:04.501Z,19.45
2023-04-15T11:48:36.118Z,20.38
2023-04-15T11:51:14.400Z,18.33
2023-04-15T11:54:08.123Z,18.25
2023-04-15T11:56:35.087Z,19.88
2023-04-15T11:59:02.237Z,19.70
2023-04-15T12:01:36.054Z,18.88
2023-04-15T12:04:06.545Z,19.33
2023-04-15T12:06:37.305Z,20.05
2023-04-15T12:09:22.765Z,19.08
2023-04-15T12:12:03.744Z,18.75
2023-04-15T12:14:33.226Z,20.38
2023-04-15T12:17:07.009Z,19.67
2023-04-15T12:19:45.488Z,19.92
2023-04-15T12:22:20.571Z,21.13
2023-04-15T12:25:08.770Z,20.48
2023-04-15T12:27:36.217Z,20.23
2023-04-15T12:30:07.997Z,19.77
2023-04-15T12:32:37.566Z,20.58
2023-04-15T12:35:10.063Z,20.05
2023-04-15T12:37:36.693Z,20.23
2023-04-15T12:42:49.237Z,19.63
2023-04-15T12:45:16.504Z,19.83
2023-04-15T12:47:45.616Z,19.40
2023-04-15T12:50:12.431Z,17.77
2023-04-15T12:52:45.395Z,19.38
2023-04-15T12:55:12.349Z,18.25
2023-04-15T12:57:42.359Z,19.00
2023-04-15T13:00:10.238Z,19.88
2023-04-15T13:02:37.478Z,18.55
2023-04-15T13:05:06.826Z,19.63
2023-04-15T13:07:53.110Z,19.10
2023-04-15T13:10:19.994Z,19.48
2023-04-15T13:12:47.953Z,18.70
2023-04-15T13:15:17.092Z,20.00
2023-04-15T13:18:07.830Z,19.83
2023-04-15T13:20:46.341Z,18.55
2023-04-15T13:23:14.922Z,18.67
2023-04-15T13:28:30.311Z,17.88
2023-04-15T13:31:32.553Z,19.80
2023-04-15T13:34:14.684Z,19.20
2023-04-15T13:36:50.016Z,18.55
2023-04-15T13:39:19.081Z,18.30
2023-04-15T13:42:17.376Z,19.08
2023-04-15T13:44:52.808Z,19.02
2023-04-15T13:47:22.378Z,18.33
2023-04-15T13:50:17.290Z,17.95
2023-04-15T13:53:05.607Z,18.17
2023-04-15T13:56:26.206Z,17.98
2023-04-15T13:59:03.404Z,17.95
2023-04-15T14:01:32.775Z,17.88
2023-04-15T14:04:20.377Z,19.92
2023-04-15T14:07:05.825Z,18.88
2023-04-15T14:10:14.145Z,17.88
2023-04-15T14:13:00.239Z,18.50
2023-04-15T14:15:31.849Z,18.08
2023-04-15T14:18:31.698Z,18.05
2023-04-15T14:20:57.019Z,17.30
2023-04-15T14:23:26.762Z,19.48
2023-04-15T14:26:03.661Z,17.27
2023-04-15T14:28:32.253Z,16.25
2023-04-15T14:31:04.906Z,18.40
2023-04-15T14:34:08.673Z,16.95
2023-04-15T14:36:37.916Z,17.85
2023-04-15T14:39:10.821Z,17.45
2023-04-15T14:46:09.227Z,18.50
2023-04-15T14:47:45.252Z,18.33
2023-04-15T14:50:12.245Z,18.50
2023-04-15T14:52:50.753Z,18.92
2023-04-15T14:55:17.812Z,17.63
2023-04-15T14:57:52.161Z,18.55
2023-04-15T15:00:19.208Z,18.45
2023-04-15T15:03:20.224Z,16.50
2023-04-15T15:08:45.208Z,17.23
2023-04-15T15:11:14.943Z,17.15
2023-04-15T15:13:45.458Z,16.13
2023-04-15T15:16:14.634Z,16.13
2023-04-15T15:18:53.219Z,16.88
2023-04-15T15:21:22.602Z,18.38
2023-04-15T15:23:59.484Z,16.80
2023-04-15T15:26:28.152Z,17.25
2023-04-15T15:29:39.074Z,17.10
2023-04-15T15:35:25.237Z,18.88
2023-04-15T15:38:16.371Z,16.73
2023-04-15T15:44:00.137Z,18.35
2023-04-15T15:46:33.494Z,18.38
2023-04-15T15:51:46.875Z,17.83
2023-04-15T16:16:00.171Z,20.48
2023-04-15T16:43:29.385Z,16.08
2023-04-15T16:54:07.538Z,16.90
2023-04-15T17:37:19.952Z,16.10
2023-04-15T17:39:46.818Z,15.07
2023-04-15T17:44:55.198Z,16.20
2023-04-15T18:03:46.041Z,15.07
2023-04-15T18:19:55.981Z,13.68
2023-04-15T19:03:50.474Z,16.92
2023-04-15T20:00:46.861Z,19.30
2023-04-15T20:22:25.766Z,22.13
2023-04-15T20:24:52.785Z,17.90
2023-04-15T20:30:03.671Z,16.83
2023-04-15T20:37:57.376Z,19.23
2023-04-15T20:43:06.517Z,17.77
2023-04-15T21:28:42.077Z,17.48
2023-04-15T21:31:08.997Z,17.13
2023-04-15T21:33:36.112Z,17.40
2023-04-15T22:03:03.368Z,21.25
2023-04-15T22:05:30.189Z,21.05
2023-04-15T22:07:58.403Z,21.02
2023-04-15T22:10:25.299Z,20.45
2023-04-15T22:12:52.088Z,19.48
2023-04-15T22:15:19.029Z,20.13
2023-04-15T22:17:46.905Z,21.38
2023-04-15T22:36:26.249Z,21.58
2023-04-15T22:38:53.176Z,20.85
2023-04-15T23:00:22.317Z,18.98
2023-04-15T23:05:18.396Z,21.13
2023-04-15T23:07:49.123Z,19.63
2023-04-15T23:10:20.291Z,22.35
2023-04-15T23:12:49.674Z,21.40
2023-04-15T23:15:23.063Z,22.52
2023-04-15T23:17:49.758Z,20.47
2023-04-15T23:20:22.363Z,21.15
2023-04-15T23:22:49.247Z,20.33
2023-04-15T23:25:22.675Z,18.30
2023-04-15T23:27:51.431Z,18.63
2023-04-15T23:30:26.099Z,18.40
2023-04-15T23:32:54.792Z,17.75
2023-04-15T23:35:21.601Z,18.33
2023-04-15T23:37:51.550Z,19.70
2023-04-15T23:40:29.048Z,18.83
2023-04-15T23:42:55.832Z,17.50
2023-04-15T23:45:22.686Z,19.23
2023-04-15T23:47:49.504Z,17.60
2023-04-15T23:50:19.052Z,17.88
2023-04-15T23:52:48.784Z,17.88
2023-04-15T23:55:15.598Z,18.20
2023-04-15T23:57:45.395Z,18.83
